createdAt,value
2022-10-25T00:04:25.976Z,10.1
2022-10-25T00:14:25.961Z,10.1
2022-10-25T00:24:25.995Z,9.8
2022-10-25T00:34:25.994Z,9.8
2022-10-25T00:44:26.030Z,10
2022-10-25T00:54:26.057Z,10.1
2022-10-25T01:04:26.080Z,10.2
2022-10-25T01:14:26.073Z,10.3
2022-10-25T01:24:26.149Z,10.2
2022-10-25T01:34:26.126Z,10.2
2022-10-25T01:44:26.260Z,10.2
2022-10-25T01:54:26.167Z,10.4
2022-10-25T02:04:26.190Z,10.4
2022-10-25T02:14:26.185Z,10.4
2022-10-25T02:24:26.207Z,10.3
2022-10-25T02:34:26.237Z,10.1
2022-10-25T02:44:26.231Z,10
2022-10-25T02:54:26.253Z,10.1
2022-10-25T03:04:26.337Z,10.1
2022-10-25T03:14:26.294Z,10.3
2022-10-25T03:24:26.341Z,10.3
2022-10-25T03:34:26.322Z,10.3
2022-10-25T03:44:26.375Z,10.2
2022-10-25T03:54:29.086Z,10.3
2022-10-25T04:04:26.416Z,10.2
2022-10-25T04:14:26.414Z,10.3
2022-10-25T04:24:26.443Z,10.1
2022-10-25T04:34:26.416Z,10.2
2022-10-25T04:44:26.477Z,10.3
2022-10-25T04:54:26.498Z,10.2
2022-10-25T05:04:26.513Z,10.2
2022-10-25T05:14:26.513Z,10.2
2022-10-25T05:24:26.582Z,10.1
2022-10-25T05:34:26.553Z,10.1
2022-10-25T05:44:26.576Z,10
2022-10-25T05:54:26.594Z,10.1
2022-10-25T06:04:26.782Z,10.2
2022-10-25T06:14:26.611Z,10.2
2022-10-25T06:24:26.667Z,10.3
2022-10-25T06:34:26.665Z,10.2
2022-10-25T06:44:26.700Z,10.2
2022-10-25T07:04:26.750Z,10.2
2022-10-25T07:14:26.733Z,10.2
2022-10-25T07:24:26.763Z,10.3
2022-10-25T07:34:26.785Z,10.4
2022-10-25T07:44:26.851Z,10.6
2022-10-25T07:54:26.823Z,10.5
2022-10-25T08:04:26.866Z,10.7
2022-10-25T08:14:26.866Z,10.7
2022-10-25T08:24:26.897Z,10.9
2022-10-25T08:34:29.543Z,10.5
2022-10-25T08:44:26.904Z,10.7
2022-10-25T08:54:26.920Z,10.6
2022-10-25T09:04:26.968Z,10.9
2022-10-25T09:14:26.942Z,11
2022-10-25T09:24:27.004Z,10.7
2022-10-25T09:34:26.990Z,10.7
2022-10-25T09:44:27.047Z,10.7
2022-10-25T09:54:27.003Z,10.8
2022-10-25T10:04:27.059Z,10.9
2022-10-25T10:14:27.116Z,10.8
2022-10-25T10:24:27.101Z,10.5
2022-10-25T10:44:27.124Z,10.6
2022-10-25T10:54:27.133Z,10.9
2022-10-25T11:04:27.152Z,10.6
2022-10-25T11:14:27.155Z,10.7
2022-10-25T11:24:27.289Z,10.6
2022-10-25T11:44:27.306Z,10.8
2022-10-25T11:54:27.224Z,10.4
2022-10-25T12:04:29.498Z,10.5
2022-10-25T12:14:27.242Z,10.5
2022-10-25T12:24:27.387Z,10.9
2022-10-25T12:34:27.290Z,10.8
2022-10-25T12:44:27.408Z,10.8
2022-10-25T13:04:27.445Z,10.8
2022-10-25T13:14:27.348Z,10.5
2022-10-25T13:24:27.506Z,10.6
2022-10-25T13:34:27.376Z,10.5
2022-10-25T13:44:27.524Z,10.1
2022-10-25T14:04:27.463Z,10.4
2022-10-25T14:34:27.501Z,10.2
2022-10-25T14:54:27.522Z,10.3
2022-10-25T15:04:27.548Z,10.1
2022-10-25T15:14:27.574Z,10
2022-10-25T15:34:27.607Z,9.6
2022-10-25T15:44:27.604Z,9.8
2022-10-25T15:54:27.658Z,9.7
2022-10-25T16:04:27.612Z,9.5
2022-10-25T16:14:27.663Z,9.4
2022-10-25T16:34:27.714Z,9.7
2022-10-25T16:44:27.718Z,9.7
2022-10-25T16:54:27.789Z,9.6
2022-10-25T17:04:27.738Z,9.5
2022-10-25T17:14:27.779Z,9.1
2022-10-25T17:24:27.785Z,9.1
2022-10-25T17:44:27.807Z,9.2
2022-10-25T17:54:27.846Z,9
2022-10-25T18:04:27.868Z,9
2022-10-25T18:14:27.866Z,8.8
2022-10-25T18:24:27.928Z,8.8
2022-10-25T18:34:27.910Z,8.9
2022-10-25T18:44:27.944Z,8.8
2022-10-25T18:54:27.936Z,8.6
2022-10-25T19:04:27.990Z,8.5
2022-10-25T19:14:27.995Z,8.9
2022-10-25T19:24:28.017Z,9.1
2022-10-25T19:44:28.086Z,8.7
2022-10-25T19:54:28.056Z,8.6
2022-10-25T20:04:28.124Z,8.5
2022-10-25T20:14:28.115Z,8.6
2022-10-25T20:24:28.125Z,8.5
2022-10-25T20:34:28.131Z,8.5
2022-10-25T20:44:28.199Z,8.6
2022-10-25T20:54:28.173Z,8.6
2022-10-25T21:34:28.292Z,8.8
2022-10-25T21:44:28.284Z,8.8
2022-10-25T22:14:28.352Z,8.9
2022-10-25T22:24:28.333Z,8.9
2022-10-25T22:44:28.446Z,8.9
2022-10-25T22:54:28.444Z,9
